Time;durP1;ratioP1;P1;durP2;ratioP2;P2;SDS_P1;SDS_P2;PMS_P1;PMS_P2;Temp;Humidity;BMP_temperature;BMP_pressure;BME280_temperature;BME280_humidity;BME280_pressure;Samples;Min_cycle;Max_cycle;Signal;HPM_P1;HPM_P2
2022/12/20 00:02:15;;;;;;;;;;;9.50;99.90;;;;;;4981747;28;20505;-74
2022/12/20 00:04:41;;;;;;;8.45;4.57;;;9.80;99.90;;;;;;4981533;28;19969;-74
2022/12/20 00:07:07;;;;;;;;;;;9.90;99.90;;;;;;4985054;28;20109;-74
2022/12/20 00:09:32;;;;;;;6.25;3.92;;;9.60;99.90;;;;;;4983699;28;19966;-75
2022/12/20 00:11:58;;;;;;;;;;;9.90;99.90;;;;;;4986365;28;20531;-75
2022/12/20 00:14:24;;;;;;;6.88;3.83;;;9.50;99.90;;;;;;4985993;28;19930;-74
2022/12/20 00:16:49;;;;;;;;;;;9.70;99.90;;;;;;4983973;28;20054;-74
2022/12/20 00:19:15;;;;;;;7.65;4.43;;;9.50;99.90;;;;;;4985154;28;19937;-73
2022/12/20 00:21:40;;;;;;;;;;;10.70;99.90;;;;;;4982574;28;20047;-74
2022/12/20 00:24:06;;;;;;;11.15;4.00;;;9.70;99.90;;;;;;4986566;28;19921;-74
2022/12/20 00:26:33;;;;;;;5.80;3.22;;;9.60;99.90;;;;;;4984338;28;20121;-74
2022/12/20 00:29:00;;;;;;;8.55;4.10;;;9.80;99.90;;;;;;4984030;28;20074;-74
2022/12/20 00:31:27;;;;;;;6.53;3.97;;;9.70;99.90;;;;;;4978066;28;20031;-74
2022/12/20 00:33:54;;;;;;;8.07;3.70;;;10.40;99.90;;;;;;4986961;28;20042;-74
2022/12/20 00:36:22;;;;;;;5.93;4.18;;;9.70;99.90;;;;;;4983000;28;20059;-74
2022/12/20 00:38:49;;;;;;;8.43;4.45;;;9.80;99.90;;;;;;4984269;28;20046;-74
2022/12/20 00:41:18;;;;;;;8.45;3.78;;;10.00;99.90;;;;;;4984986;28;20050;-74
2022/12/20 00:43:43;;;;;;;5.93;4.10;;;9.90;99.90;;;;;;4985422;28;20046;-74
2022/12/20 00:46:10;;;;;;;;;;;9.70;99.90;;;;;;4984416;28;20047;-74
2022/12/20 00:48:36;;;;;;;7.55;3.88;;;9.80;99.90;;;;;;4984438;28;20389;-74
2022/12/20 00:51:06;;;;;;;7.82;3.78;;;9.70;99.90;;;;;;4984543;28;20045;-74
2022/12/20 00:53:32;;;;;;;6.78;3.45;;;9.70;99.90;;;;;;4981471;28;20406;-74
2022/12/20 00:55:57;;;;;;;;;;;9.70;99.90;;;;;;4987093;28;20093;-74
2022/12/20 00:58:23;;;;;;;7.45;3.67;;;9.70;99.90;;;;;;4983030;28;20448;-74
2022/12/20 01:00:49;;;;;;;6.22;3.83;;;9.60;99.90;;;;;;4986303;28;20081;-74
2022/12/20 01:03:15;;;;;;;;;;;9.60;99.90;;;;;;4984636;28;20133;-74
2022/12/20 01:05:50;;;;;;;6.57;3.35;;;10.00;99.90;;;;;;4983441;28;19922;-74
2022/12/20 01:08:15;;;;;;;6.57;3.35;;;9.70;99.90;;;;;;4984104;28;20047;-73
2022/12/20 01:10:41;;;;;;;;;;;9.60;99.90;;;;;;4986013;28;20093;-74
2022/12/20 01:13:06;;;;;;;6.80;3.78;;;9.60;99.90;;;;;;4984612;28;20377;-74
2022/12/20 01:15:32;;;;;;;6.75;3.53;;;9.60;99.90;;;;;;4984332;28;20045;-74
2022/12/20 01:17:58;;;;;;;6.47;3.63;;;10.50;99.90;;;;;;4983655;28;20078;-74
2022/12/20 01:20:24;;;;;;;;;;;10.20;99.90;;;;;;4985057;28;20082;-74
2022/12/20 01:22:49;;;;;;;5.90;4.22;;;9.60;99.90;;;;;;4982050;28;19917;-74
2022/12/20 01:25:15;;;;;;;;;;;10.50;99.90;;;;;;4985752;28;20047;-74
2022/12/20 01:27:41;;;;;;;5.13;3.50;;;9.50;99.90;;;;;;4982389;28;20301;-73
2022/12/20 01:30:07;;;;;;;;;;;10.50;99.90;;;;;;4982804;28;20077;-74
2022/12/20 01:32:33;;;;;;;5.07;3.28;;;9.50;99.90;;;;;;4983768;28;20001;-74
2022/12/20 01:34:59;;;;;;;6.40;3.85;;;9.50;99.90;;;;;;4984383;28;20554;-73
2022/12/20 01:37:25;;;;;;;;;;;9.50;99.90;;;;;;4984364;28;20129;-74
2022/12/20 01:39:50;;;;;;;6.57;4.07;;;9.40;99.90;;;;;;4985737;28;20297;-74
2022/12/20 01:42:16;;;;;;;;;;;10.40;99.90;;;;;;4981576;28;20514;-74
2022/12/20 01:44:42;;;;;;;5.93;3.97;;;9.80;99.90;;;;;;4985914;28;19969;-74
2022/12/20 01:47:08;;;;;;;;;;;9.30;99.90;;;;;;4982129;28;20054;-74
2022/12/20 01:49:45;;;;;;;6.88;3.90;;;9.30;99.90;;;;;;4983220;28;19933;-73
2022/12/20 01:52:13;;;;;;;6.65;3.75;;;9.30;99.90;;;;;;4981975;28;20050;-75
2022/12/20 01:54:51;;;;;;;7.63;3.50;;;9.60;99.90;;;;;;4984765;28;20514;-76
2022/12/20 01:57:23;;;;;;;6.13;3.72;;;9.50;99.90;;;;;;4981534;28;20035;-75
2022/12/20 01:59:49;;;;;;;6.15;3.13;;;9.50;99.90;;;;;;4982488;28;20045;-75
2022/12/20 02:02:16;;;;;;;5.10;3.45;;;9.50;99.90;;;;;;4984134;28;20394;-75
2022/12/20 02:04:44;;;;;;;5.82;3.15;;;9.70;99.90;;;;;;4979317;28;20038;-75
2022/12/20 02:07:16;;;;;;;5.18;3.42;;;9.60;99.90;;;;;;4982997;28;20046;-75
2022/12/20 02:09:42;;;;;;;6.15;3.38;;;9.80;99.90;;;;;;4980333;28;20051;-75
2022/12/20 02:12:10;;;;;;;;;;;9.60;99.90;;;;;;4984940;28;20393;-75
2022/12/20 02:15:25;;;;;;;6.88;3.65;;;9.60;99.90;;;;;;4982787;28;19929;-75
2022/12/20 02:18:11;;;;;;;5.20;3.15;;;9.50;99.90;;;;;;4950088;28;20058;-75
2022/12/20 02:20:45;;;;;;;7.13;3.73;;;9.50;99.90;;;;;;4984020;28;20050;-75
2022/12/20 02:23:48;;;;;;;5.88;3.15;;;9.70;99.90;;;;;;4977472;28;20812;-75
2022/12/20 02:26:51;;;;;;;8.57;3.53;;;9.40;99.90;;;;;;4982517;28;20498;-74
2022/12/20 02:29:53;;;;;;;7.50;3.63;;;9.50;99.90;;;;;;4978619;28;20538;-74
2022/12/20 02:32:24;;;;;;;4.88;3.40;;;9.40;99.90;;;;;;4979770;28;20410;-75
2022/12/20 02:34:50;;;;;;;6.72;3.88;;;9.30;99.90;;;;;;4982174;28;20043;-75
2022/12/20 02:37:16;;;;;;;6.95;3.55;;;9.10;99.90;;;;;;4980740;28;20085;-75
2022/12/20 02:39:43;;;;;;;;;;;9.00;99.90;;;;;;4983815;28;20082;-75
2022/12/20 02:42:17;;;;;;;7.90;4.15;;;9.00;99.90;;;;;;4980505;28;19969;-75
2022/12/20 02:45:15;;;;;;;6.63;4.53;;;9.10;99.90;;;;;;4978221;28;20050;-75
2022/12/20 02:47:53;;;;;;;8.18;3.80;;;9.30;99.90;;;;;;4978423;28;20066;-75
2022/12/20 02:50:34;;;;;;;5.78;3.72;;;9.00;99.90;;;;;;4982392;28;20042;-75
2022/12/20 02:52:59;;;;;;;7.03;4.43;;;8.90;99.90;;;;;;4984259;28;20046;-74
2022/12/20 02:55:32;;;;;;;;;;;9.40;99.90;;;;;;4981063;28;20391;-74
2022/12/20 02:58:04;;;;;;;8.35;4.35;;;8.90;99.90;;;;;;4981887;28;19936;-74
2022/12/20 03:00:36;;;;;;;8.68;4.60;;;8.80;99.90;;;;;;4981618;28;20050;-75
2022/12/20 03:03:22;;;;;;;5.93;3.30;;;9.00;99.90;;;;;;4983373;28;20042;-74
2022/12/20 03:05:50;;;;;;;6.63;4.07;;;8.90;99.90;;;;;;4978293;28;20042;-75
2022/12/20 03:08:16;;;;;;;7.57;3.90;;;9.60;99.90;;;;;;4981332;28;20038;-75
2022/12/20 03:10:42;;;;;;;;;;;9.00;99.90;;;;;;4982382;28;20050;-75
2022/12/20 03:13:09;;;;;;;7.53;3.55;;;9.10;99.90;;;;;;4979664;28;20008;-75
2022/12/20 03:15:35;;;;;;;5.32;3.30;;;9.00;99.90;;;;;;4983757;28;20478;-75
2022/12/20 03:18:01;;;;;;;6.90;3.80;;;9.10;99.90;;;;;;4979345;28;20042;-75
2022/12/20 03:20:27;;;;;;;7.47;3.88;;;9.00;99.90;;;;;;4983005;28;20117;-75
2022/12/20 03:22:52;;;;;;;;;;;9.10;99.90;;;;;;4979306;28;20134;-75
2022/12/20 03:25:18;;;;;;;8.48;4.35;;;9.00;99.90;;;;;;4981257;28;20308;-74
2022/12/20 03:27:44;;;;;;;;;;;9.00;99.90;;;;;;4982179;28;20047;-75
2022/12/20 03:30:11;;;;;;;5.47;3.42;;;9.80;99.90;;;;;;4982041;28;19921;-75
2022/12/20 03:32:36;;;;;;;5.93;3.17;;;9.00;99.90;;;;;;4979596;28;20046;-75
2022/12/20 03:35:02;;;;;;;;;;;8.90;99.90;;;;;;4981242;28;20098;-75
2022/12/20 03:37:28;;;;;;;6.45;3.78;;;9.00;99.90;;;;;;4982965;28;19921;-75
2022/12/20 03:39:54;;;;;;;;;;;10.10;99.90;;;;;;4980918;28;20039;-75
2022/12/20 03:42:19;;;;;;;6.65;3.35;;;9.30;99.90;;;;;;4981773;28;19929;-75
2022/12/20 03:44:45;;;;;;;;;;;9.60;99.90;;;;;;4982778;28;20046;-75
2022/12/20 03:47:10;;;;;;;5.68;3.25;;;9.40;99.90;;;;;;4980591;28;20322;-75
2022/12/20 03:49:36;;;;;;;;;;;10.10;99.90;;;;;;4983131;28;20062;-74
2022/12/20 03:52:01;;;;;;;5.18;3.20;;;9.10;99.90;;;;;;4980726;28;20395;-74
2022/12/20 03:54:27;;;;;;;;;;;9.10;99.90;;;;;;4982226;28;20047;-73
2022/12/20 03:56:52;;;;;;;5.97;3.10;;;9.10;99.90;;;;;;4979545;28;19921;-74
2022/12/20 03:59:18;;;;;;;;;;;9.20;99.90;;;;;;4983479;28;20122;-74
2022/12/20 04:01:43;;;;;;;5.13;3.20;;;9.20;99.90;;;;;;4979834;28;19948;-73
2022/12/20 04:04:09;;;;;;;;;;;10.00;99.90;;;;;;4981227;28;20043;-73
2022/12/20 04:06:35;;;;;;;7.38;3.15;;;9.40;99.90;;;;;;4981775;28;19918;-74
2022/12/20 04:09:01;;;;;;;5.32;3.33;;;9.40;99.90;;;;;;4980041;28;20617;-73
2022/12/20 04:11:26;;;;;;;;;;;9.40;99.90;;;;;;4983907;28;20047;-74
2022/12/20 04:13:53;;;;;;;6.75;3.35;;;9.80;99.90;;;;;;4980515;28;19922;-73
2022/12/20 04:16:23;;;;;;;5.47;2.97;;;9.40;99.90;;;;;;4982728;28;20034;-74
2022/12/20 04:18:48;;;;;;;6.82;3.92;;;9.40;99.90;;;;;;4976457;28;20177;-74
2022/12/20 04:21:14;;;;;;;;;;;9.40;99.90;;;;;;4979952;28;20121;-73
2022/12/20 04:23:42;;;;;;;8.15;3.60;;;9.40;99.90;;;;;;4980686;28;20404;-74
2022/12/20 04:26:08;;;;;;;6.95;3.63;;;9.70;99.90;;;;;;4980911;28;20046;-73
2022/12/20 04:28:35;;;;;;;4.78;3.22;;;9.60;99.90;;;;;;4980816;28;20577;-74
2022/12/20 04:31:01;;;;;;;5.10;3.05;;;9.90;99.90;;;;;;4981866;28;20039;-74
2022/12/20 04:33:27;;;;;;;5.35;3.03;;;9.60;99.90;;;;;;4980672;28;20034;-74
2022/12/20 04:35:54;;;;;;;6.72;3.53;;;9.90;99.90;;;;;;4980344;28;20042;-74
2022/12/20 04:38:21;;;;;;;7.93;4.07;;;9.60;99.90;;;;;;4983702;28;20122;-73
2022/12/20 04:40:52;;;;;;;7.78;3.85;;;9.60;99.90;;;;;;4976660;28;20043;-74
2022/12/20 04:43:19;;;;;;;5.25;3.22;;;9.50;99.90;;;;;;4977431;28;20038;-73
2022/12/20 04:45:47;;;;;;;5.68;3.42;;;9.80;99.90;;;;;;4976080;28;20113;-74
2022/12/20 04:48:13;;;;;;;6.30;3.40;;;9.60;99.90;;;;;;4979567;28;20054;-73
2022/12/20 04:50:38;;;;;;;;;;;10.00;99.90;;;;;;4980368;28;20410;-73
2022/12/20 04:55:49;;;;;;;6.30;3.75;;;9.50;99.90;;;;;;4980553;28;20058;-73
2022/12/20 04:58:15;;;;;;;8.50;4.20;;;9.60;99.90;;;;;;4986211;28;20110;-74
2022/12/20 05:00:41;;;;;;;;;;;9.60;99.90;;;;;;4983983;28;20440;-73
2022/12/20 05:03:06;;;;;;;6.25;3.47;;;9.60;99.90;;;;;;4984098;28;19929;-74
2022/12/20 05:05:32;;;;;;;8.02;3.30;;;10.60;99.90;;;;;;4983053;28;20401;-73
2022/12/20 05:07:58;;;;;;;5.85;3.17;;;9.70;99.90;;;;;;4978924;28;20050;-75
2022/12/20 05:10:23;;;;;;;;;;;9.90;99.90;;;;;;4982844;28;20046;-75
2022/12/20 05:12:49;;;;;;;8.95;3.70;;;9.90;99.90;;;;;;4983007;28;20450;-76
2022/12/20 05:15:14;;;;;;;;;;;10.00;99.90;;;;;;4986015;28;20035;-74
2022/12/20 05:17:40;;;;;;;5.03;2.95;;;9.80;99.90;;;;;;4984181;28;19973;-75
2022/12/20 05:20:06;;;;;;;;;;;9.80;99.90;;;;;;4984292;28;20498;-74
2022/12/20 05:28:00;;;;;;;7.68;2.97;;;9.80;99.90;;;;;;4983072;28;20401;-75
2022/12/20 05:30:26;;;;;;;;;;;9.90;99.90;;;;;;4984622;28;20049;-72
2022/12/20 05:32:52;;;;;;;5.40;3.30;;;9.90;99.90;;;;;;4982945;28;19922;-73
2022/12/20 05:35:18;;;;;;;;;;;9.90;99.90;;;;;;4982457;28;20042;-73
2022/12/20 05:37:44;;;;;;;5.47;3.20;;;9.90;99.90;;;;;;4984173;28;19930;-75
2022/12/20 05:40:10;;;;;;;;;;;9.90;99.90;;;;;;4984196;28;20121;-74
2022/12/20 05:42:36;;;;;;;5.70;3.40;;;10.00;99.90;;;;;;4985953;28;19972;-74
2022/12/20 05:45:02;;;;;;;;;;;10.00;99.90;;;;;;4986919;28;20093;-73
2022/12/20 05:47:29;;;;;;;4.75;3.15;;;10.00;99.90;;;;;;4979614;28;20065;-74
2022/12/20 05:49:55;;;;;;;8.43;3.50;;;9.90;99.90;;;;;;4980709;28;20129;-75
2022/12/20 05:52:22;;;;;;;;;;;10.00;99.90;;;;;;4985280;28;20202;-75
2022/12/20 05:54:48;;;;;;;;;;;11.20;99.90;;;;;;4982932;28;19929;-76
2022/12/20 05:57:14;;;;;;;5.68;3.70;;;10.10;99.90;;;;;;4981847;28;19925;-76
2022/12/20 05:59:40;;;;;;;6.85;3.10;;;10.30;99.90;;;;;;4985186;28;20125;-77
2022/12/20 06:02:06;;;;;;;5.97;3.00;;;10.10;99.90;;;;;;4982872;28;20062;-77
2022/12/20 06:04:32;;;;;;;;;;;10.10;99.90;;;;;;4977989;28;20031;-80
2022/12/20 06:06:58;;;;;;;6.57;3.30;;;10.10;99.90;;;;;;4983664;28;19921;-77
2022/12/20 06:09:24;;;;;;;5.13;2.95;;;10.10;99.90;;;;;;4981998;28;20049;-78
2022/12/20 06:11:49;;;;;;;;;;;10.20;99.90;;;;;;4983149;28;20042;-80
2022/12/20 06:14:15;;;;;;;3.90;2.47;;;10.10;99.90;;;;;;4983731;28;19922;-81
2022/12/20 06:16:41;;;;;;;;;;;10.30;99.90;;;;;;4983505;28;20121;-81
2022/12/20 06:19:07;;;;;;;5.47;3.13;;;10.20;99.90;;;;;;4984697;28;20013;-79
2022/12/20 06:21:33;;;;;;;6.13;3.10;;;10.20;99.90;;;;;;4980676;28;20571;-75
2022/12/20 06:24:00;;;;;;;;;;;10.20;99.90;;;;;;4983315;28;20050;-82
2022/12/20 06:26:26;;;;;;;5.28;3.40;;;10.20;99.90;;;;;;4984559;28;20008;-78
2022/12/20 06:28:53;;;;;;;7.93;3.65;;;10.30;99.90;;;;;;4982446;28;20519;-79
2022/12/20 06:31:19;;;;;;;6.10;3.80;;;10.20;99.90;;;;;;4984726;28;20034;-79
2022/12/20 06:33:45;;;;;;;;;;;10.20;99.90;;;;;;4983928;28;20050;-76
2022/12/20 06:36:10;;;;;;;7.55;3.90;;;11.20;99.90;;;;;;4985075;28;19922;-77
2022/12/20 06:38:36;;;;;;;7.85;4.50;;;10.10;99.90;;;;;;4982922;28;20443;-79
2022/12/20 06:41:02;;;;;;;7.15;4.13;;;10.10;99.90;;;;;;4981585;28;20046;-76
2022/12/20 06:43:27;;;;;;;;;;;10.00;99.90;;;;;;4985092;28;20038;-77
2022/12/20 06:45:53;;;;;;;7.63;5.00;;;10.00;99.90;;;;;;4982626;28;19940;-77
2022/12/20 06:48:20;;;;;;;7.90;4.85;;;10.10;99.90;;;;;;4984137;28;20388;-75
2022/12/20 06:50:50;;;;;;;9.85;4.78;;;10.00;99.90;;;;;;4978227;28;20059;-74
2022/12/20 06:53:16;;;;;;;6.93;4.40;;;10.10;99.90;;;;;;4979835;28;20050;-76
2022/12/20 06:55:41;;;;;;;;;;;10.10;99.90;;;;;;4979738;28;20081;-75
2022/12/20 06:58:07;;;;;;;6.53;4.65;;;10.00;99.90;;;;;;4981928;28;19922;-76
2022/12/20 07:00:33;;;;;;;9.75;5.82;;;10.00;99.90;;;;;;4979277;28;20391;-76
2022/12/20 07:02:58;;;;;;;;;;;10.00;99.90;;;;;;4984310;28;20039;-79
2022/12/20 07:05:24;;;;;;;7.55;3.85;;;9.80;99.90;;;;;;4978112;28;19944;-78
2022/12/20 07:07:50;;;;;;;;;;;9.90;99.90;;;;;;4982473;28;20058;-79
2022/12/20 07:10:16;;;;;;;7.60;4.18;;;9.90;99.90;;;;;;4985140;28;20004;-77
2022/12/20 07:12:42;;;;;;;7.47;4.43;;;9.90;99.90;;;;;;4980482;28;20043;-78
2022/12/20 07:15:08;;;;;;;;;;;9.90;99.90;;;;;;4979688;28;20046;-80
2022/12/20 07:17:33;;;;;;;8.23;4.47;;;9.90;99.90;;;;;;4983446;28;20224;-79
2022/12/20 07:19:59;;;;;;;7.30;4.40;;;9.80;99.90;;;;;;4982042;28;20046;-79
2022/12/20 07:22:25;;;;;;;7.35;4.22;;;9.80;99.90;;;;;;4975288;28;20490;-79
2022/12/20 07:24:51;;;;;;;;;;;9.80;99.90;;;;;;4981648;28;20050;-79
2022/12/20 07:27:17;;;;;;;7.40;3.95;;;9.80;99.90;;;;;;4980513;28;19922;-79
2022/12/20 07:29:43;;;;;;;5.55;3.80;;;9.90;99.90;;;;;;4983599;28;20053;-79
2022/12/20 07:32:11;;;;;;;7.43;4.70;;;9.80;99.90;;;;;;4981458;28;20039;-79
2022/12/20 07:34:37;;;;;;;6.70;3.85;;;9.80;99.90;;;;;;4978443;28;20047;-79
2022/12/20 07:37:02;;;;;;;;;;;9.90;99.90;;;;;;4983238;28;20138;-79
2022/12/20 07:39:28;;;;;;;6.57;3.58;;;9.80;99.90;;;;;;4981769;28;19922;-79
2022/12/20 07:41:54;;;;;;;;;;;9.80;99.90;;;;;;4981380;28;20070;-79
2022/12/20 07:44:22;;;;;;;6.07;4.03;;;9.80;99.90;;;;;;4983713;28;19925;-79
2022/12/20 07:46:48;;;;;;;5.65;3.85;;;9.80;99.90;;;;;;4980259;28;20044;-79
2022/12/20 07:49:14;;;;;;;;;;;9.70;99.90;;;;;;4981611;28;20503;-78
2022/12/20 07:51:43;;;;;;;8.30;4.43;;;9.70;99.90;;;;;;4983574;28;19957;-78
2022/12/20 07:54:13;;;;;;;7.70;4.57;;;9.70;99.90;;;;;;4980919;28;20043;-79
2022/12/20 07:56:42;;;;;;;7.00;4.00;;;9.60;99.90;;;;;;4983576;28;20085;-78
2022/12/20 07:59:11;;;;;;;6.97;3.95;;;9.70;99.90;;;;;;4981379;28;20402;-78
2022/12/20 08:01:37;;;;;;;5.70;3.67;;;9.80;99.90;;;;;;4982207;28;20054;-78
2022/12/20 08:04:12;;;;;;;6.88;3.25;;;9.90;99.90;;;;;;4982736;28;20097;-78
2022/12/20 08:06:39;;;;;;;9.07;4.07;;;10.00;99.90;;;;;;4980673;28;20056;-78
2022/12/20 08:09:05;;;;;;;5.50;3.00;;;10.00;99.90;;;;;;4983651;28;20069;-79
2022/12/20 08:11:32;;;;;;;;;;;10.10;99.90;;;;;;4982376;28;20487;-79
2022/12/20 08:13:58;;;;;;;5.82;3.53;;;10.10;99.90;;;;;;4981848;28;19922;-77
2022/12/20 08:16:24;;;;;;;;;;;10.00;99.90;;;;;;4981475;28;20403;-80
2022/12/20 08:18:49;;;;;;;4.78;3.13;;;10.10;99.90;;;;;;4983265;28;20312;-79
2022/12/20 08:21:15;;;;;;;;;;;10.20;99.90;;;;;;4979476;28;20347;-80
2022/12/20 08:23:41;;;;;;;7.30;3.40;;;10.20;99.90;;;;;;4972996;28;19922;-79
2022/12/20 08:26:06;;;;;;;;;;;10.10;99.90;;;;;;4977338;28;20048;-77
2022/12/20 08:28:32;;;;;;;6.80;3.10;;;10.10;99.90;;;;;;4978579;28;20349;-76
2022/12/20 08:31:02;;;;;;;;;;;10.30;99.90;;;;;;4980739;28;20057;-78
2022/12/20 08:33:28;;;;;;;6.85;3.38;;;10.30;99.90;;;;;;4979988;28;19922;-80
2022/12/20 08:35:57;;;;;;;;;;;10.20;99.90;;;;;;4986431;28;20054;-79
2022/12/20 08:38:25;;;;;;;6.45;3.08;;;10.30;99.90;;;;;;4982265;28;19976;-77
2022/12/20 08:40:51;;;;;;;6.68;3.25;;;10.30;99.90;;;;;;4984050;28;20046;-77
2022/12/20 08:43:19;;;;;;;5.97;3.15;;;10.30;99.90;;;;;;4984673;28;20129;-78
2022/12/20 08:45:50;;;;;;;;;;;10.40;99.90;;;;;;4978470;28;20133;-79
2022/12/20 08:48:16;;;;;;;5.70;3.15;;;10.30;99.90;;;;;;4978486;28;19922;-78
2022/12/20 08:50:41;;;;;;;;;;;10.40;99.90;;;;;;4984265;28;20027;-79
2022/12/20 08:53:07;;;;;;;5.20;2.90;;;10.50;99.90;;;;;;4982779;28;19929;-79
2022/12/20 08:55:33;;;;;;;8.85;2.90;;;10.40;99.90;;;;;;4981154;28;20516;-79
2022/12/20 08:57:58;;;;;;;;;;;10.40;99.90;;;;;;4982744;28;20046;-79
2022/12/20 09:00:24;;;;;;;5.90;2.22;;;10.50;99.90;;;;;;4983340;28;19926;-78
2022/12/20 09:02:50;;;;;;;;;;;10.50;99.90;;;;;;4981126;28;20047;-78
2022/12/20 09:05:16;;;;;;;4.30;2.55;;;10.50;99.90;;;;;;4985803;28;19922;-77
2022/12/20 09:07:41;;;;;;;;;;;10.40;99.90;;;;;;4983527;28;20081;-77
2022/12/20 09:10:08;;;;;;;6.53;2.70;;;10.40;99.90;;;;;;4981437;28;19929;-78
2022/12/20 09:12:36;;;;;;;8.98;2.97;;;10.40;99.90;;;;;;4983173;28;20425;-77
2022/12/20 09:15:02;;;;;;;6.07;2.67;;;10.50;99.90;;;;;;4980482;28;20041;-82
2022/12/20 09:17:28;;;;;;;;;;;10.50;99.90;;;;;;4985311;28;20042;-77
2022/12/20 09:19:54;;;;;;;6.10;2.53;;;10.60;99.90;;;;;;4982901;28;20428;-76
2022/12/20 09:22:20;;;;;;;;;;;10.60;99.90;;;;;;4979282;28;20050;-81
2022/12/20 09:24:45;;;;;;;6.18;2.53;;;10.60;99.90;;;;;;4980972;28;19929;-78
2022/12/20 09:27:11;;;;;;;;;;;10.70;99.90;;;;;;4981840;28;20038;-77
2022/12/20 09:29:37;;;;;;;5.05;2.67;;;10.70;99.90;;;;;;4986469;28;19922;-77
2022/12/20 09:32:02;;;;;;;5.30;2.53;;;10.60;99.90;;;;;;4984131;28;20046;-77
2022/12/20 09:34:28;;;;;;;5.03;2.72;;;10.70;99.90;;;;;;4983890;28;20050;-76
2022/12/20 09:36:54;;;;;;;;;;;10.60;99.90;;;;;;4982108;28;20073;-77
2022/12/20 09:39:19;;;;;;;4.63;2.22;;;10.70;99.90;;;;;;4978214;28;19947;-76
2022/12/20 09:41:45;;;;;;;;;;;10.80;99.90;;;;;;4982486;28;20370;-76
2022/12/20 09:44:23;;;;;;;4.88;1.85;;;10.70;99.90;;;;;;4981921;28;19953;-77
2022/12/20 09:46:58;;;;;;;6.68;2.95;;;10.80;99.90;;;;;;4979306;28;20051;-77
2022/12/20 09:49:29;;;;;;;5.63;2.35;;;10.80;99.90;;;;;;4979787;28;20046;-77
2022/12/20 09:52:14;;;;;;;4.85;2.28;;;10.80;99.90;;;;;;4978538;28;20105;-77
2022/12/20 09:54:53;;;;;;;4.85;2.28;;;10.90;99.90;;;;;;4981044;28;20085;-77
2022/12/20 09:57:37;;;;;;;5.18;2.45;;;10.80;99.90;;;;;;4983304;28;20489;-77
2022/12/20 10:00:14;;;;;;;4.78;2.45;;;10.80;99.90;;;;;;4980696;28;20426;-77
2022/12/20 10:02:40;;;;;;;3.72;1.90;;;10.80;99.90;;;;;;4982217;28;20486;-76
2022/12/20 10:05:32;;;;;;;;;;;10.90;99.90;;;;;;4984869;28;20049;-77
2022/12/20 10:08:34;;;;;;;4.82;2.55;;;10.80;99.90;;;;;;4975349;28;19922;-77
2022/12/20 10:11:03;;;;;;;7.68;3.00;;;10.80;99.90;;;;;;4976084;28;20092;-77
2022/12/20 10:13:41;;;;;;;5.63;2.65;;;10.70;99.90;;;;;;4980507;28;20414;-76
2022/12/20 10:16:09;;;;;;;4.25;2.20;;;10.60;99.90;;;;;;4982040;28;20047;-76
2022/12/20 10:19:07;;;;;;;4.35;2.15;;;10.70;99.90;;;;;;4983307;28;20498;-76
2022/12/20 10:22:07;;;;;;;4.55;2.58;;;10.70;99.90;;;;;;4982885;28;20109;-77
2022/12/20 10:24:35;;;;;;;6.72;2.78;;;10.60;99.90;;;;;;4981316;28;20500;-76
2022/12/20 10:27:13;;;;;;;6.15;2.65;;;10.60;99.90;;;;;;4982757;28;20089;-76
2022/12/20 10:29:39;;;;;;;7.93;2.60;;;10.60;99.90;;;;;;4973408;28;20043;-76
2022/12/20 10:32:14;;;;;;;7.22;2.20;;;10.60;99.90;;;;;;4981115;28;20055;-76
2022/12/20 10:35:04;;;;;;;4.35;2.63;;;10.50;99.90;;;;;;4981174;28;20147;-77
2022/12/20 10:37:29;;;;;;;5.72;2.78;;;10.50;99.90;;;;;;4982840;28;20046;-76
2022/12/20 10:39:55;;;;;;;;;;;10.50;99.90;;;;;;4982250;28;20407;-76
2022/12/20 10:42:31;;;;;;;7.15;2.60;;;10.50;99.90;;;;;;4980944;28;19965;-78
2022/12/20 10:44:57;;;;;;;4.95;2.70;;;10.40;99.90;;;;;;4983356;28;20393;-78
2022/12/20 10:47:35;;;;;;;;;;;10.50;99.90;;;;;;4983760;28;20049;-77
2022/12/20 10:50:30;;;;;;;4.15;2.47;;;10.50;99.90;;;;;;4979875;28;20309;-78
2022/12/20 10:53:27;;;;;;;7.05;2.50;;;10.50;99.90;;;;;;4977908;28;20085;-76
2022/12/20 10:55:54;;;;;;;5.55;2.70;;;10.50;99.90;;;;;;4972878;28;20161;-75
2022/12/20 10:58:34;;;;;;;5.13;2.80;;;10.60;99.90;;;;;;4981641;28;20061;-75
2022/12/20 11:01:12;;;;;;;4.18;2.45;;;10.60;99.90;;;;;;4977681;28;20042;-76
2022/12/20 11:03:53;;;;;;;5.18;2.67;;;10.40;99.90;;;;;;4983687;28;20042;-76
2022/12/20 11:06:21;;;;;;;5.38;2.35;;;10.30;99.90;;;;;;4977930;28;20129;-75
2022/12/20 11:08:47;;;;;;;3.88;2.38;;;10.40;99.90;;;;;;4983262;28;20054;-75
2022/12/20 11:11:18;;;;;;;6.82;3.65;;;10.30;99.90;;;;;;4977983;28;20118;-76
2022/12/20 11:13:45;;;;;;;8.00;3.05;;;10.30;99.90;;;;;;4983040;28;20398;-75
2022/12/20 11:16:33;;;;;;;5.22;2.88;;;10.20;99.90;;;;;;4977392;28;20042;-75
2022/12/20 11:19:23;;;;;;;5.03;2.75;;;10.30;99.90;;;;;;4985354;28;20051;-76
2022/12/20 11:22:46;;;;;;;5.97;3.08;;;10.40;99.90;;;;;;4979325;28;20042;-76
2022/12/20 11:25:35;;;;;;;5.00;3.10;;;11.50;99.90;;;;;;4920376;29;20047;-76
2022/12/20 11:28:07;;;;;;;6.20;2.90;;;10.20;99.90;;;;;;4922627;29;20044;-75
2022/12/20 11:30:51;;;;;;;6.07;3.70;;;10.20;99.90;;;;;;4960824;28;20061;-76
2022/12/20 11:33:41;;;;;;;5.90;3.00;;;10.20;99.90;;;;;;4983493;28;20038;-75
2022/12/20 11:36:10;;;;;;;7.40;3.50;;;10.20;99.90;;;;;;4978685;28;20122;-75
2022/12/20 11:38:48;;;;;;;5.43;3.13;;;10.00;99.90;;;;;;4980913;28;20049;-76
2022/12/20 11:41:29;;;;;;;5.82;3.50;;;10.00;99.90;;;;;;4976807;28;20101;-76
2022/12/20 11:44:00;;;;;;;5.82;3.10;;;9.90;99.90;;;;;;4981637;28;20046;-78
2022/12/20 11:46:32;;;;;;;4.57;2.97;;;10.00;99.90;;;;;;4980994;28;20039;-76
2022/12/20 11:49:13;;;;;;;6.00;3.58;;;10.00;99.90;;;;;;4978253;28;20506;-77
2022/12/20 11:51:46;;;;;;;7.30;5.15;;;10.00;99.90;;;;;;4980675;28;20043;-77
2022/12/20 11:54:28;;;;;;;5.97;3.15;;;10.00;99.90;;;;;;4981105;28;20125;-78
2022/12/20 11:57:04;;;;;;;7.72;3.63;;;9.90;99.90;;;;;;4982799;28;20422;-75
2022/12/20 11:59:58;;;;;;;9.70;4.80;;;9.80;99.90;;;;;;4979082;28;20498;-76
2022/12/20 12:02:37;;;;;;;5.90;3.80;;;9.80;99.90;;;;;;4982816;28;20102;-77
2022/12/20 12:05:20;;;;;;;7.35;4.43;;;9.90;99.90;;;;;;4981814;28;20474;-77
2022/12/20 12:07:52;;;;;;;7.75;4.40;;;9.90;99.90;;;;;;4984072;28;20468;-75
2022/12/20 12:10:40;;;;;;;8.68;4.88;;;10.00;99.90;;;;;;4986106;28;20043;-74
2022/12/20 12:13:16;;;;;;;9.27;3.97;;;9.90;99.90;;;;;;4981788;28;20425;-75
2022/12/20 12:15:49;;;;;;;6.63;4.22;;;9.90;99.90;;;;;;4982767;28;20039;-75
2022/12/20 12:18:24;;;;;;;8.35;4.63;;;9.90;99.90;;;;;;4984697;28;20489;-75
2022/12/20 12:21:09;;;;;;;7.03;4.53;;;10.10;99.90;;;;;;4984305;28;20030;-76
2022/12/20 12:23:53;;;;;;;7.35;4.15;;;10.00;99.90;;;;;;4983303;28;20051;-76
2022/12/20 12:26:20;;;;;;;7.03;4.93;;;10.00;99.90;;;;;;4985336;28;20042;-76
2022/12/20 12:29:00;;;;;;;6.93;5.13;;;9.90;99.90;;;;;;4983151;28;20049;-75
2022/12/20 12:31:48;;;;;;;7.97;4.93;;;9.80;99.90;;;;;;4982747;28;20043;-76
2022/12/20 12:34:16;;;;;;;7.60;4.90;;;9.90;99.90;;;;;;4985387;28;20141;-77
2022/12/20 12:37:20;;;;;;;7.50;5.43;;;9.70;99.90;;;;;;4984618;28;20384;-85
2022/12/20 12:40:29;;;;;;;6.70;4.88;;;9.70;99.90;;;;;;4980962;28;20062;-88
2022/12/20 12:43:44;;;;;;;7.13;4.43;;;9.80;99.90;;;;;;4987219;28;20497;-91
2022/12/20 12:46:30;;;;;;;7.32;5.07;;;9.70;99.90;;;;;;4994263;28;20529;-84
2022/12/20 12:49:01;;;;;;;9.02;4.95;;;9.70;99.90;;;;;;4975941;28;20081;-86
2022/12/20 12:51:33;;;;;;;6.22;4.72;;;9.70;99.90;;;;;;4976856;28;20402;-91
2022/12/20 12:54:08;;;;;;;11.32;5.57;;;9.70;99.90;;;;;;4993204;28;20137;-90
2022/12/20 12:56:44;;;;;;;9.98;5.82;;;9.70;99.90;;;;;;4984386;28;20553;-90
2022/12/20 12:59:28;;;;;;;8.48;5.90;;;9.60;99.90;;;;;;4983521;28;20478;-89
2022/12/20 13:02:16;;;;;;;7.70;5.30;;;9.60;99.90;;;;;;4982947;28;20104;-89
2022/12/20 13:05:09;;;;;;;7.78;5.30;;;9.80;99.90;;;;;;4985547;28;20042;-89
2022/12/20 13:07:35;;;;;;;7.43;5.50;;;9.70;99.90;;;;;;4981856;28;20061;-90
2022/12/20 13:10:29;;;;;;;;;;;9.70;99.90;;;;;;4984747;28;20043;-91
2022/12/20 13:12:56;;;;;;;8.93;5.10;;;9.60;99.90;;;;;;4938269;28;19922;-91
2022/12/20 13:15:24;;;;;;;8.70;6.05;;;9.60;99.90;;;;;;4979520;28;20090;-91
2022/12/20 13:18:08;;;;;;;;;;;9.50;99.90;;;;;;4986759;28;20141;-91
2022/12/20 13:20:35;;;;;;;9.50;5.25;;;9.60;99.90;;;;;;4982265;28;20386;-91
2022/12/20 13:23:07;;;;;;;10.13;5.88;;;9.60;99.90;;;;;;4985336;28;20462;-91
2022/12/20 13:25:39;;;;;;;12.00;6.63;;;9.40;99.90;;;;;;4983933;28;20038;-90
2022/12/20 13:28:23;;;;;;;8.82;5.55;;;9.40;99.90;;;;;;4983305;28;20038;-91
2022/12/20 13:31:01;;;;;;;8.10;6.22;;;9.40;99.90;;;;;;4982684;28;20043;-90
2022/12/20 13:33:41;;;;;;;10.32;6.43;;;9.40;99.90;;;;;;4990066;28;20094;-91
2022/12/20 13:36:09;;;;;;;11.07;6.55;;;9.40;99.90;;;;;;4989437;28;20046;-91
2022/12/20 13:38:44;;;;;;;10.50;6.93;;;9.40;99.90;;;;;;4987310;28;20093;-91
2022/12/20 13:41:25;;;;;;;10.57;7.70;;;9.30;99.90;;;;;;4990415;28;20069;-91